createdAt,value
2023-01-29T00:00:15.633Z,12.07
2023-01-29T00:02:44.269Z,15.63
2023-01-29T00:05:27.024Z,15.70
2023-01-29T00:07:56.715Z,15.83
2023-01-29T00:10:25.858Z,16.27
2023-01-29T00:12:54.201Z,16.00
2023-01-29T00:15:22.946Z,14.97
2023-01-29T00:17:51.348Z,17.33
2023-01-29T00:20:21.189Z,16.73
2023-01-29T00:22:49.632Z,14.63
2023-01-29T00:25:18.173Z,16.53
2023-01-29T00:27:46.762Z,17.20
2023-01-29T00:30:19.571Z,17.77
2023-01-29T00:32:48.330Z,19.30
2023-01-29T00:35:16.848Z,17.67
2023-01-29T00:37:46.933Z,16.73
2023-01-29T00:40:15.842Z,19.33
2023-01-29T00:43:03.596Z,17.43
2023-01-29T00:45:32.044Z,18.67
2023-01-29T00:48:00.554Z,22.90
2023-01-29T00:50:29.312Z,18.23
2023-01-29T00:52:59.565Z,19.87
2023-01-29T00:55:27.926Z,20.57
2023-01-29T00:57:56.702Z,21.50
2023-01-29T01:00:26.045Z,20.27
2023-01-29T01:03:05.649Z,19.83
2023-01-29T01:05:34.480Z,22.30
2023-01-29T01:08:04.354Z,21.63
2023-01-29T01:10:33.566Z,25.53
2023-01-29T01:13:03.866Z,23.17
2023-01-29T01:15:35.523Z,28.43
2023-01-29T01:18:04.815Z,20.97
2023-01-29T01:20:36.009Z,25.03
2023-01-29T01:23:06.409Z,23.53
2023-01-29T01:25:35.236Z,25.83
2023-01-29T01:28:03.704Z,24.63
2023-01-29T01:30:33.159Z,24.77
2023-01-29T01:33:01.639Z,30.37
2023-01-29T01:35:30.395Z,24.53
2023-01-29T01:37:58.689Z,25.87
2023-01-29T01:40:28.882Z,26.53
2023-01-29T01:43:01.570Z,23.43
2023-01-29T01:45:31.995Z,24.47
2023-01-29T01:48:05.927Z,26.20
2023-01-29T01:50:41.805Z,27.60
2023-01-29T01:53:13.459Z,29.20
2023-01-29T01:55:48.813Z,26.47
2023-01-29T01:58:24.268Z,27.43
2023-01-29T02:00:53.449Z,25.47
2023-01-29T02:03:41.936Z,27.93
2023-01-29T02:06:29.703Z,27.17
2023-01-29T02:09:24.266Z,28.23
2023-01-29T02:11:54.149Z,30.47
2023-01-29T02:14:23.309Z,28.73
2023-01-29T02:16:51.753Z,32.87
2023-01-29T02:19:44.813Z,33.47
2023-01-29T02:23:02.617Z,30.13
2023-01-29T02:25:55.162Z,28.37
2023-01-29T02:28:45.522Z,30.23
2023-01-29T02:31:27.048Z,28.47
2023-01-29T02:34:08.659Z,31.17
2023-01-29T02:36:46.955Z,37.00
2023-01-29T02:39:25.515Z,31.57
2023-01-29T02:42:01.575Z,32.97
2023-01-29T02:44:39.757Z,34.17
2023-01-29T02:47:17.093Z,35.23
2023-01-29T02:49:51.310Z,31.13
2023-01-29T02:52:23.129Z,37.20
2023-01-29T02:54:57.231Z,33.97
2023-01-29T02:57:30.645Z,33.17
2023-01-29T03:00:07.047Z,35.30
2023-01-29T03:02:41.957Z,36.37
2023-01-29T03:05:18.798Z,37.17
2023-01-29T03:07:53.886Z,37.77
2023-01-29T03:10:28.033Z,35.60
2023-01-29T03:13:01.363Z,35.43
2023-01-29T03:15:42.463Z,38.10
2023-01-29T03:18:15.227Z,35.33
2023-01-29T03:20:49.241Z,36.40
2023-01-29T03:23:27.291Z,34.80
2023-01-29T03:26:18.228Z,35.10
2023-01-29T03:29:05.660Z,34.43
2023-01-29T03:31:53.457Z,34.80
2023-01-29T03:34:28.556Z,39.47
2023-01-29T03:36:59.839Z,39.00
2023-01-29T03:39:29.968Z,34.13
2023-01-29T03:42:06.673Z,34.17
2023-01-29T03:44:44.389Z,33.37
2023-01-29T03:47:21.178Z,32.90
2023-01-29T03:50:00.196Z,33.60
2023-01-29T03:52:38.779Z,34.47
2023-01-29T03:55:16.907Z,34.37
2023-01-29T03:57:55.372Z,34.40
2023-01-29T04:00:29.542Z,34.33
2023-01-29T04:03:08.132Z,39.43
2023-01-29T04:05:44.805Z,32.57
2023-01-29T04:08:19.962Z,30.53
2023-01-29T04:10:50.623Z,35.40
2023-01-29T04:13:20.148Z,35.97
2023-01-29T04:15:55.634Z,31.27
2023-01-29T04:18:26.181Z,32.67
2023-01-29T04:20:54.891Z,32.80
2023-01-29T04:23:26.132Z,33.33
2023-01-29T04:26:08.338Z,32.23
2023-01-29T04:28:55.362Z,32.60
2023-01-29T04:31:28.927Z,35.73
2023-01-29T04:34:14.401Z,34.80
2023-01-29T04:36:55.427Z,35.03
2023-01-29T04:39:28.680Z,34.87
2023-01-29T04:42:08.958Z,34.67
2023-01-29T04:44:45.817Z,37.17
2023-01-29T04:47:23.365Z,36.20
2023-01-29T04:50:04.715Z,34.97
2023-01-29T04:52:39.974Z,34.93
2023-01-29T04:55:16.073Z,35.03
2023-01-29T04:57:51.030Z,35.93
2023-01-29T05:00:24.020Z,35.27
2023-01-29T05:02:53.684Z,31.53
2023-01-29T05:05:23.785Z,34.20
2023-01-29T05:07:52.381Z,39.43
2023-01-29T05:10:22.809Z,37.67
2023-01-29T05:12:58.072Z,38.63
2023-01-29T05:15:35.079Z,39.90
2023-01-29T05:18:04.390Z,38.97
2023-01-29T05:20:36.384Z,38.47
2023-01-29T05:23:04.957Z,41.77
2023-01-29T05:25:35.312Z,39.63
2023-01-29T05:28:05.898Z,40.40
2023-01-29T05:30:36.780Z,41.53
2023-01-29T05:33:10.832Z,40.67
2023-01-29T05:35:40.658Z,43.00
2023-01-29T05:38:11.895Z,41.07
2023-01-29T05:40:40.368Z,42.50
2023-01-29T05:43:17.602Z,43.00
2023-01-29T05:45:53.570Z,41.00
2023-01-29T05:48:22.013Z,41.30
2023-01-29T05:50:52.334Z,44.50
2023-01-29T05:53:21.517Z,39.43
2023-01-29T05:55:50.446Z,45.43
2023-01-29T05:58:19.795Z,42.60
2023-01-29T06:00:48.215Z,43.93
2023-01-29T06:03:17.065Z,41.03
2023-01-29T06:05:45.415Z,40.43
2023-01-29T06:08:15.295Z,39.97
2023-01-29T06:10:43.576Z,43.67
2023-01-29T06:13:12.014Z,41.70
2023-01-29T06:15:42.582Z,39.67
2023-01-29T06:18:10.950Z,37.47
2023-01-29T06:20:39.702Z,40.57
2023-01-29T06:23:08.089Z,39.60
2023-01-29T06:25:37.847Z,40.20
2023-01-29T06:28:07.055Z,38.07
2023-01-29T06:30:35.724Z,41.27
2023-01-29T06:33:04.231Z,42.97
2023-01-29T06:35:32.668Z,43.87
2023-01-29T06:38:01.069Z,40.30
2023-01-29T06:40:29.433Z,41.00
2023-01-29T06:43:01.412Z,43.37
2023-01-29T06:45:29.872Z,40.43
2023-01-29T06:48:00.515Z,40.83
2023-01-29T06:50:29.743Z,41.63
2023-01-29T06:52:58.164Z,41.67
2023-01-29T06:55:26.738Z,36.53
2023-01-29T06:57:55.044Z,39.90
2023-01-29T07:00:25.104Z,38.13
2023-01-29T07:02:53.522Z,39.93
2023-01-29T07:05:21.906Z,42.43
2023-01-29T07:07:50.287Z,37.37
2023-01-29T07:10:19.071Z,40.33
2023-01-29T07:12:47.620Z,37.57
2023-01-29T07:15:19.663Z,41.83
2023-01-29T07:18:00.107Z,41.27
2023-01-29T07:20:30.567Z,43.60
2023-01-29T07:22:59.603Z,41.33
2023-01-29T07:25:28.026Z,43.50
2023-01-29T07:27:56.310Z,44.10
2023-01-29T07:30:24.641Z,43.23
2023-01-29T07:32:53.196Z,42.80
2023-01-29T07:35:23.291Z,43.90
2023-01-29T07:37:51.660Z,43.90
2023-01-29T07:40:20.607Z,41.73
2023-01-29T07:42:48.953Z,42.77
2023-01-29T07:45:17.484Z,41.53
2023-01-29T07:47:46.009Z,43.10
2023-01-29T07:50:14.488Z,44.87
2023-01-29T07:52:44.373Z,40.77
2023-01-29T07:55:12.760Z,40.63
2023-01-29T07:57:41.138Z,41.33
2023-01-29T08:00:12.568Z,40.80
2023-01-29T08:02:41.205Z,45.07
2023-01-29T08:05:10.597Z,44.30
2023-01-29T08:07:38.881Z,43.53
2023-01-29T08:10:11.067Z,42.77
2023-01-29T08:12:39.363Z,41.43
2023-01-29T08:15:08.913Z,43.67
2023-01-29T08:20:27.966Z,44.70
2023-01-29T08:23:02.219Z,39.60
2023-01-29T08:25:32.262Z,42.53
2023-01-29T08:28:01.676Z,40.47
2023-01-29T08:30:33.678Z,40.37
2023-01-29T08:33:02.622Z,41.57
2023-01-29T08:35:30.968Z,42.87
2023-01-29T08:38:01.659Z,44.93
2023-01-29T08:40:33.263Z,41.87
2023-01-29T08:43:03.466Z,41.90
2023-01-29T08:45:35.110Z,42.67
2023-01-29T08:48:03.728Z,43.00
2023-01-29T08:50:32.972Z,45.73
2023-01-29T08:53:03.215Z,43.67
2023-01-29T08:55:32.984Z,44.90
2023-01-29T08:58:01.328Z,42.87
2023-01-29T09:00:29.717Z,43.97
2023-01-29T09:02:59.728Z,44.00
2023-01-29T09:05:28.808Z,43.47
2023-01-29T09:07:58.941Z,41.77
2023-01-29T09:10:27.754Z,43.93
2023-01-29T09:12:57.562Z,41.70
2023-01-29T09:15:26.199Z,42.07
2023-01-29T09:17:55.008Z,48.70
2023-01-29T09:20:23.761Z,44.70
2023-01-29T09:22:53.684Z,43.67
2023-01-29T09:25:22.186Z,46.83
2023-01-29T09:27:50.759Z,48.43
2023-01-29T09:30:21.005Z,45.10
2023-01-29T09:32:53.511Z,46.83
2023-01-29T09:35:22.668Z,47.87
2023-01-29T09:37:51.363Z,47.27
2023-01-29T09:40:28.081Z,42.93
2023-01-29T09:43:02.581Z,44.97
2023-01-29T09:45:32.566Z,43.43
2023-01-29T09:48:05.758Z,49.23
2023-01-29T09:50:40.840Z,45.03
2023-01-29T09:53:19.628Z,47.30
2023-01-29T09:55:54.348Z,48.23
2023-01-29T09:58:28.889Z,43.57
2023-01-29T10:01:11.330Z,44.70
2023-01-29T10:04:13.282Z,46.63
2023-01-29T10:06:56.393Z,42.33
2023-01-29T10:10:11.561Z,39.23
2023-01-29T10:13:03.292Z,46.67
2023-01-29T10:16:09.687Z,42.87
2023-01-29T10:19:31.630Z,46.20
2023-01-29T10:22:47.271Z,46.03
2023-01-29T10:25:20.552Z,46.00
2023-01-29T10:27:53.220Z,43.33
2023-01-29T10:30:35.248Z,46.43
2023-01-29T10:33:06.793Z,44.90
2023-01-29T10:35:43.510Z,44.17
2023-01-29T10:38:28.968Z,45.37
2023-01-29T10:41:12.462Z,45.87
2023-01-29T10:43:56.452Z,42.33
2023-01-29T10:46:45.325Z,46.27
2023-01-29T10:49:30.287Z,44.57
2023-01-29T10:52:15.637Z,48.47
2023-01-29T10:55:01.993Z,46.77
2023-01-29T10:57:50.059Z,51.67
2023-01-29T11:00:24.073Z,51.30
2023-01-29T11:02:54.112Z,47.73
2023-01-29T11:05:30.985Z,49.33
2023-01-29T11:08:10.084Z,48.37
2023-01-29T11:10:43.583Z,48.50
2023-01-29T11:13:16.398Z,48.93
2023-01-29T11:15:45.165Z,49.97
2023-01-29T11:18:15.916Z,49.03
2023-01-29T11:20:47.180Z,48.20
2023-01-29T11:23:29.462Z,49.27
2023-01-29T11:26:00.126Z,52.10
2023-01-29T11:28:40.788Z,51.40
2023-01-29T11:31:23.263Z,49.20
2023-01-29T11:33:55.687Z,54.77
2023-01-29T11:36:34.100Z,51.93
2023-01-29T11:39:21.540Z,49.67
2023-01-29T11:41:56.307Z,49.57
2023-01-29T11:44:32.246Z,53.33
2023-01-29T11:47:13.892Z,51.23
2023-01-29T11:49:49.649Z,53.57
2023-01-29T11:52:21.182Z,49.70
2023-01-29T11:54:55.478Z,54.13
2023-01-29T11:57:30.070Z,53.83
2023-01-29T12:00:02.777Z,50.57
2023-01-29T12:02:37.749Z,51.37
2023-01-29T12:05:16.355Z,53.53
2023-01-29T12:07:47.255Z,46.93
2023-01-29T12:10:34.142Z,49.47
2023-01-29T12:13:08.485Z,53.73
2023-01-29T12:15:39.386Z,45.73
2023-01-29T12:18:20.525Z,50.23
2023-01-29T12:20:56.433Z,53.63
2023-01-29T12:23:36.568Z,47.77
2023-01-29T12:26:10.816Z,49.17
2023-01-29T12:28:49.526Z,49.53
2023-01-29T12:31:30.789Z,53.10
2023-01-29T12:34:07.841Z,47.93
2023-01-29T12:36:43.126Z,50.40
2023-01-29T12:39:16.419Z,50.73
2023-01-29T12:41:52.524Z,46.67
2023-01-29T12:44:25.239Z,47.97
2023-01-29T12:46:58.027Z,51.97
2023-01-29T12:49:30.666Z,47.33
2023-01-29T12:52:09.578Z,45.40
2023-01-29T12:54:43.974Z,47.23
2023-01-29T12:57:24.666Z,45.03
2023-01-29T12:59:59.334Z,46.33
2023-01-29T13:02:36.830Z,41.70
2023-01-29T13:05:20.956Z,44.93
2023-01-29T13:07:54.656Z,43.07
2023-01-29T13:10:27.680Z,41.37
2023-01-29T13:13:03.189Z,45.67
2023-01-29T13:15:36.730Z,40.50
2023-01-29T13:18:48.711Z,42.37
2023-01-29T13:21:21.461Z,39.50
2023-01-29T13:23:53.657Z,39.73
2023-01-29T13:26:23.580Z,39.33
2023-01-29T13:28:53.949Z,41.47
2023-01-29T13:31:31.705Z,39.87
2023-01-29T13:34:14.135Z,39.87
2023-01-29T13:36:46.312Z,38.80
2023-01-29T13:39:25.662Z,39.27
2023-01-29T13:41:55.413Z,37.10
2023-01-29T13:44:28.431Z,37.20
2023-01-29T13:47:00.478Z,38.13
2023-01-29T13:49:36.938Z,36.63
2023-01-29T13:52:27.558Z,36.93
2023-01-29T13:55:00.496Z,34.50
2023-01-29T13:57:55.797Z,39.03
2023-01-29T14:01:01.825Z,37.43
2023-01-29T14:04:10.385Z,44.97
2023-01-29T14:06:49.721Z,43.47
2023-01-29T14:10:03.568Z,40.93
2023-01-29T14:12:46.644Z,41.17
2023-01-29T14:15:30.883Z,31.87
2023-01-29T14:18:20.180Z,39.03
2023-01-29T14:21:21.814Z,38.70
2023-01-29T14:23:52.442Z,43.80
2023-01-29T14:26:27.526Z,42.90
2023-01-29T14:29:03.339Z,42.47
2023-01-29T14:31:44.132Z,45.10
2023-01-29T14:34:26.789Z,50.10
2023-01-29T14:36:58.500Z,49.43
2023-01-29T14:39:39.538Z,44.33
2023-01-29T14:42:22.241Z,47.30
2023-01-29T14:45:00.862Z,48.67
2023-01-29T14:48:09.323Z,50.67
2023-01-29T14:50:57.544Z,50.97
2023-01-29T14:53:41.338Z,47.60
2023-01-29T14:56:16.301Z,48.63
2023-01-29T14:58:49.398Z,47.57
2023-01-29T15:01:25.230Z,52.60
2023-01-29T15:04:01.403Z,50.00
2023-01-29T15:06:42.156Z,52.17
2023-01-29T15:09:16.438Z,50.10
2023-01-29T15:11:54.943Z,51.17
2023-01-29T15:14:31.293Z,53.73
2023-01-29T15:17:23.979Z,53.67
2023-01-29T15:19:52.955Z,53.20
2023-01-29T15:22:26.021Z,45.90
2023-01-29T15:25:07.761Z,55.17
2023-01-29T15:27:36.329Z,51.23
2023-01-29T15:30:09.290Z,56.30
2023-01-29T15:32:40.853Z,55.00
2023-01-29T15:35:15.935Z,59.70
2023-01-29T15:37:59.768Z,50.90
2023-01-29T15:40:29.249Z,58.07
2023-01-29T15:42:57.637Z,60.03
2023-01-29T15:45:33.859Z,64.83
2023-01-29T15:48:06.910Z,62.73
2023-01-29T15:50:41.884Z,54.83
2023-01-29T15:53:19.348Z,60.70
2023-01-29T15:55:49.020Z,58.57
2023-01-29T15:58:20.468Z,66.47
2023-01-29T16:00:55.350Z,67.53
2023-01-29T16:03:25.930Z,67.97
2023-01-29T16:05:56.007Z,71.13
2023-01-29T16:08:27.605Z,64.37
2023-01-29T16:10:59.617Z,67.47
2023-01-29T16:13:31.133Z,73.53
2023-01-29T16:16:03.266Z,70.27
2023-01-29T16:18:36.205Z,76.30
2023-01-29T16:21:09.055Z,74.43
2023-01-29T16:23:44.394Z,71.43
2023-01-29T16:26:18.693Z,75.77
2023-01-29T16:28:48.937Z,71.93
2023-01-29T16:31:29.515Z,69.37
2023-01-29T16:34:00.325Z,71.17
2023-01-29T16:36:30.747Z,69.93
2023-01-29T16:39:05.403Z,76.27
2023-01-29T16:41:36.404Z,77.37
2023-01-29T16:44:29.230Z,82.53
2023-01-29T16:46:57.533Z,76.00
2023-01-29T16:49:54.437Z,69.97
2023-01-29T16:52:27.711Z,75.60
2023-01-29T16:55:16.177Z,71.27
2023-01-29T16:57:55.004Z,81.87
2023-01-29T17:00:28.128Z,73.03
2023-01-29T17:03:02.374Z,83.67
2023-01-29T17:05:33.517Z,64.17
2023-01-29T17:08:02.097Z,71.60
2023-01-29T17:10:32.809Z,72.20
2023-01-29T17:13:05.936Z,71.93
2023-01-29T17:15:38.689Z,70.40
2023-01-29T17:18:19.395Z,69.17
2023-01-29T17:20:47.875Z,71.80
2023-01-29T17:23:16.447Z,66.77
2023-01-29T17:25:47.260Z,68.53
2023-01-29T17:28:17.911Z,75.53
2023-01-29T17:31:00.210Z,74.60
2023-01-29T17:33:34.017Z,72.07
2023-01-29T17:36:02.481Z,69.63
2023-01-29T17:38:30.813Z,65.17
2023-01-29T17:41:05.372Z,67.73
2023-01-29T17:43:33.988Z,70.50
2023-01-29T17:46:02.434Z,68.60
2023-01-29T17:48:32.345Z,66.43
2023-01-29T17:51:07.269Z,60.73
2023-01-29T17:53:45.224Z,65.63
2023-01-29T17:56:21.363Z,63.43
2023-01-29T17:58:49.744Z,66.87
2023-01-29T18:01:18.141Z,64.33
2023-01-29T18:03:46.564Z,60.60
2023-01-29T18:06:26.185Z,59.50
2023-01-29T18:08:54.481Z,61.50
2023-01-29T18:11:24.671Z,59.00
2023-01-29T18:13:53.274Z,57.57
2023-01-29T18:16:22.407Z,60.80
2023-01-29T18:18:51.345Z,62.83
2023-01-29T18:21:19.904Z,57.03
2023-01-29T18:23:48.231Z,60.17
2023-01-29T18:26:18.096Z,59.40
2023-01-29T18:28:47.885Z,59.70
2023-01-29T18:31:16.751Z,58.30
2023-01-29T18:33:45.432Z,59.43
2023-01-29T18:36:13.804Z,58.97
2023-01-29T18:38:42.164Z,56.60
2023-01-29T18:41:12.326Z,59.10
2023-01-29T18:43:43.124Z,53.33
2023-01-29T18:46:13.038Z,53.10
2023-01-29T18:48:42.775Z,52.13
2023-01-29T18:51:11.414Z,58.40
2023-01-29T18:53:39.800Z,56.83
2023-01-29T18:56:09.311Z,52.60
2023-01-29T18:58:38.081Z,55.07
2023-01-29T19:01:12.140Z,52.07
2023-01-29T19:03:41.987Z,47.80
2023-01-29T19:06:13.059Z,54.40
2023-01-29T19:08:43.034Z,54.33
2023-01-29T19:11:12.628Z,53.53
2023-01-29T19:13:42.927Z,57.23
2023-01-29T19:16:13.585Z,48.90
2023-01-29T19:18:42.271Z,57.80
2023-01-29T19:21:13.441Z,53.67
2023-01-29T19:23:43.095Z,57.07
2023-01-29T19:26:13.534Z,55.00
2023-01-29T19:28:42.283Z,59.70
2023-01-29T19:31:12.421Z,55.03
2023-01-29T19:33:41.578Z,55.70
2023-01-29T19:36:12.040Z,53.87
2023-01-29T19:38:40.363Z,47.37
2023-01-29T19:41:08.769Z,56.40
2023-01-29T19:43:38.252Z,60.10
2023-01-29T19:46:07.431Z,50.67
2023-01-29T19:48:37.560Z,55.07
2023-01-29T19:51:10.057Z,52.40
2023-01-29T19:53:40.328Z,52.53
2023-01-29T19:56:12.285Z,51.07
2023-01-29T19:58:41.293Z,55.73
2023-01-29T20:01:16.109Z,57.70
2023-01-29T20:03:47.738Z,55.70
2023-01-29T20:06:18.911Z,53.57
2023-01-29T20:08:47.694Z,49.67
2023-01-29T20:11:17.503Z,51.87
2023-01-29T20:13:49.735Z,52.63
2023-01-29T20:16:19.757Z,59.57
2023-01-29T20:18:49.859Z,56.33
2023-01-29T20:21:22.029Z,50.33
2023-01-29T20:23:51.773Z,51.30
2023-01-29T20:26:20.660Z,55.60
2023-01-29T20:28:49.896Z,49.13
2023-01-29T20:31:18.705Z,53.57
2023-01-29T20:33:48.464Z,52.93
2023-01-29T20:36:16.838Z,50.47
2023-01-29T20:38:45.238Z,51.73
2023-01-29T20:41:16.847Z,53.67
2023-01-29T20:43:46.204Z,51.13
2023-01-29T20:46:14.751Z,52.57
2023-01-29T20:48:43.485Z,52.30
2023-01-29T20:51:15.768Z,49.80
2023-01-29T20:53:46.389Z,51.80
2023-01-29T20:56:16.690Z,52.43
2023-01-29T20:58:46.669Z,49.47
2023-01-29T21:01:19.352Z,53.10
2023-01-29T21:03:48.808Z,56.13
2023-01-29T21:06:18.650Z,55.00
2023-01-29T21:08:47.081Z,48.27
2023-01-29T21:11:15.470Z,52.67
2023-01-29T21:13:44.077Z,51.93
2023-01-29T21:16:13.085Z,48.10
2023-01-29T21:18:41.649Z,48.87
2023-01-29T21:21:10.014Z,47.53
2023-01-29T21:23:39.700Z,47.63
2023-01-29T21:26:09.047Z,52.23
2023-01-29T21:28:37.469Z,52.10
2023-01-29T21:31:07.551Z,52.40
2023-01-29T21:33:36.089Z,48.70
2023-01-29T21:36:05.752Z,49.13
2023-01-29T21:38:34.385Z,47.60
2023-01-29T21:41:07.134Z,52.07
2023-01-29T21:43:34.571Z,52.33
2023-01-29T21:46:11.580Z,47.57
2023-01-29T21:48:41.147Z,44.67
2023-01-29T21:51:10.483Z,49.33
2023-01-29T21:53:38.993Z,44.97
2023-01-29T21:56:09.368Z,44.87
2023-01-29T21:58:37.802Z,49.67
2023-01-29T22:01:35.597Z,51.63
2023-01-29T22:03:55.754Z,45.93
2023-01-29T22:06:24.370Z,43.53
2023-01-29T22:08:53.044Z,50.23
2023-01-29T22:11:22.904Z,48.03
2023-01-29T22:13:51.267Z,46.07
2023-01-29T22:16:19.653Z,46.53
2023-01-29T22:18:50.364Z,45.77
2023-01-29T22:21:18.909Z,50.17
2023-01-29T22:23:49.747Z,50.37
2023-01-29T22:26:18.923Z,38.93
2023-01-29T22:28:48.868Z,42.03
2023-01-29T22:31:17.143Z,47.33
2023-01-29T22:33:45.549Z,49.23
2023-01-29T22:36:15.403Z,45.13
2023-01-29T22:38:44.674Z,44.67
2023-01-29T22:41:14.753Z,38.77
2023-01-29T22:43:44.430Z,38.17
2023-01-29T22:46:14.219Z,45.23
2023-01-29T22:48:42.786Z,43.87
2023-01-29T22:51:12.064Z,41.23
2023-01-29T22:53:42.335Z,39.43
2023-01-29T22:56:12.068Z,36.00
2023-01-29T22:58:41.195Z,40.47
2023-01-29T23:01:09.906Z,41.10
2023-01-29T23:03:39.713Z,41.33
2023-01-29T23:06:08.340Z,39.70
2023-01-29T23:08:36.775Z,34.37
2023-01-29T23:11:15.034Z,35.00
2023-01-29T23:13:44.831Z,37.97
2023-01-29T23:16:14.217Z,35.73
2023-01-29T23:18:44.829Z,41.40
2023-01-29T23:21:13.513Z,38.47
2023-01-29T23:23:44.667Z,33.30
2023-01-29T23:26:32.638Z,33.63
2023-01-29T23:29:01.595Z,25.63
2023-01-29T23:31:29.945Z,37.03
2023-01-29T23:34:00.887Z,32.33
2023-01-29T23:36:29.385Z,32.70
2023-01-29T23:38:57.708Z,34.87
2023-01-29T23:41:26.121Z,37.13
2023-01-29T23:43:54.515Z,32.70
2023-01-29T23:46:22.952Z,34.90
2023-01-29T23:48:51.383Z,37.30
2023-01-29T23:51:21.105Z,32.20
2023-01-29T23:53:49.425Z,30.90
2023-01-29T23:56:17.762Z,36.10
2023-01-29T23:58:46.339Z,29.07
